Time,TemperatureF,DewpointF,PressureIn,WindDirection,WindDirectionDegrees,WindSpeedMPH,WindSpeedGustMPH,Humidity,HourlyPrecipIn,Conditions,Clouds,dailyrainin,SoftwareType,DateUTC
2013-02-28 06:23:00,28.5,21.9,29.17,North,0,16.3,16.3,76,0.00,,,0.00,WUHU216HW,2013-02-28 12:23:00,
2013-02-28 06:24:00,28.5,21.9,29.17,North,0,16.3,16.3,77,0.00,,,0.00,WUHU216HW,2013-02-28 12:24:00,
2013-02-28 06:29:00,28.5,22.2,29.17,NW,315,2.0,16.3,77,0.00,,,0.00,WUHU216HW,2013-02-28 12:29:00,
2013-02-28 06:34:00,28.5,22.2,29.17,North,0,15.8,16.3,77,0.00,,,0.00,WUHU216HW,2013-02-28 12:34:00,
2013-02-28 06:39:00,28.5,22.2,29.18,NW,315,4.2,15.8,77,0.00,,,0.00,WUHU216HW,2013-02-28 12:39:00,
2013-02-28 06:44:00,28.5,22.2,29.18,NNW,338,4.6,13.8,77,0.00,,,0.00,WUHU216HW,2013-02-28 12:44:00,
2013-02-28 06:49:00,28.5,22.2,29.18,WNW,293,0.0,13.8,77,0.00,,,0.00,WUHU216HW,2013-02-28 12:49:00,
2013-02-28 06:54:00,28.4,22.0,29.18,NW,315,13.1,13.1,77,0.00,,,0.00,WUHU216HW,2013-02-28 12:54:00,
2013-02-28 06:59:00,28.5,22.2,29.18,NW,315,5.3,13.1,77,0.00,,,0.00,WUHU216HW,2013-02-28 12:59:00,
2013-02-28 07:05:00,28.5,22.2,29.18,NW,315,4.4,13.1,77,0.00,,,0.00,WUHU216HW,2013-02-28 13:05:00,
2013-02-28 07:10:00,28.5,22.2,29.18,NNW,338,1.7,8.0,77,0.00,,,0.00,WUHU216HW,2013-02-28 13:10:00,
2013-02-28 07:15:00,28.5,22.2,29.18,NNW,338,5.5,5.5,77,0.00,,,0.00,WUHU216HW,2013-02-28 13:15:00,
2013-02-28 07:20:00,28.5,22.2,29.19,NNW,338,12.3,12.3,77,0.00,,,0.00,WUHU216HW,2013-02-28 13:20:00,
2013-02-28 07:25:00,28.5,22.2,29.19,NNW,338,14.7,14.7,77,0.00,,,0.00,WUHU216HW,2013-02-28 13:25:00,
2013-02-28 07:30:00,28.7,22.4,29.19,NW,315,10.0,14.7,77,0.00,,,0.00,WUHU216HW,2013-02-28 13:30:00,
2013-02-28 07:35:00,28.7,22.4,29.19,NW,315,13.6,13.6,77,0.00,,,0.00,WUHU216HW,2013-02-28 13:35:00,
2013-02-28 07:40:00,28.9,22.6,29.19,North,0,10.5,13.6,77,0.00,,,0.00,WUHU216HW,2013-02-28 13:40:00,
2013-02-28 07:45:00,29.1,22.7,29.19,North,0,12.0,12.0,77,0.00,,,0.00,WUHU216HW,2013-02-28 13:45:00,
2013-02-28 07:50:00,29.1,22.7,29.19,NNW,338,7.3,12.0,77,0.00,,,0.00,WUHU216HW,2013-02-28 13:50:00,
2013-02-28 07:55:00,29.3,22.9,29.19,WNW,293,7.1,12.0,77,0.00,,,0.00,WUHU216HW,2013-02-28 13:55:00,
2013-02-28 08:00:00,29.3,22.6,29.20,NNW,338,4.4,9.8,76,0.00,,,0.00,WUHU216HW,2013-02-28 14:00:00,
2013-02-28 08:05:00,29.3,22.6,29.20,WNW,293,4.6,15.6,76,0.00,,,0.00,WUHU216HW,2013-02-28 14:05:00,
2013-02-28 08:11:00,29.3,22.6,29.20,NNW,338,10.0,15.6,76,0.00,,,0.00,WUHU216HW,2013-02-28 14:11:00,
2013-02-28 08:16:00,29.3,22.6,29.20,NW,315,6.2,10.9,76,0.00,,,0.00,WUHU216HW,2013-02-28 14:16:00,
2013-02-28 08:21:00,29.4,22.4,29.20,WNW,293,7.1,10.0,75,0.00,,,0.00,WUHU216HW,2013-02-28 14:21:00,
2013-02-28 08:26:00,29.4,22.4,29.20,North,0,3.5,9.6,75,0.00,,,0.00,WUHU216HW,2013-02-28 14:26:00,
2013-02-28 08:31:00,29.3,22.3,29.20,North,0,3.5,9.6,75,0.00,,,0.00,WUHU216HW,2013-02-28 14:31:00,
2013-02-28 08:36:00,29.4,22.4,29.21,NNW,338,5.5,12.9,75,0.00,,,0.00,WUHU216HW,2013-02-28 14:36:00,
2013-02-28 08:41:00,29.4,22.4,29.21,NNW,338,8.7,12.9,75,0.00,,,0.00,WUHU216HW,2013-02-28 14:41:00,
2013-02-28 08:46:00,29.4,22.1,29.21,NNW,338,9.1,9.1,74,0.00,,,0.00,WUHU216HW,2013-02-28 14:46:00,
2013-02-28 08:51:00,29.4,22.1,29.21,NNW,338,7.1,9.1,74,0.00,,,0.00,WUHU216HW,2013-02-28 14:51:00,
2013-02-28 08:56:00,29.4,22.1,29.22,NNW,338,10.0,11.8,74,0.00,,,0.00,WUHU216HW,2013-02-28 14:56:00,
2013-02-28 09:01:00,29.4,22.1,29.22,NNW,338,8.9,12.5,74,0.00,,,0.00,WUHU216HW,2013-02-28 15:01:00,
2013-02-28 09:06:00,29.4,22.1,29.22,NNW,338,11.4,12.5,74,0.00,,,0.00,WUHU216HW,2013-02-28 15:06:00,
2013-02-28 09:11:00,29.4,22.1,29.22,NNW,338,8.0,12.5,74,0.00,,,0.00,WUHU216HW,2013-02-28 15:11:00,
2013-02-28 09:16:00,29.8,22.5,29.22,NNW,338,5.8,11.4,74,0.00,,,0.00,WUHU216HW,2013-02-28 15:16:00,
2013-02-28 09:21:00,30.0,22.3,29.21,NNW,338,9.6,9.6,73,0.00,,,0.00,WUHU216HW,2013-02-28 15:21:00,
2013-02-28 09:27:00,30.0,22.3,29.21,North,0,8.9,9.6,73,0.00,,,0.00,WUHU216HW,2013-02-28 15:27:00,
2013-02-28 09:32:00,29.8,22.1,29.22,North,0,10.7,10.7,73,0.00,,,0.00,WUHU216HW,2013-02-28 15:32:00,
2013-02-28 09:37:00,30.0,22.3,29.22,NW,315,9.6,10.7,73,0.00,,,0.00,WUHU216HW,2013-02-28 15:37:00,
2013-02-28 09:42:00,30.5,22.8,29.22,NNW,338,5.5,9.6,73,0.00,,,0.00,WUHU216HW,2013-02-28 15:42:00,
2013-02-28 09:47:00,30.7,22.7,29.22,NW,315,11.4,11.4,72,0.00,,,0.00,WUHU216HW,2013-02-28 15:47:00,
2013-02-28 09:52:00,30.7,22.7,29.22,NNW,338,7.3,14.7,72,0.00,,,0.00,WUHU216HW,2013-02-28 15:52:00,
2013-02-28 09:57:00,30.7,22.7,29.22,NNW,338,11.4,14.7,72,0.00,,,0.00,WUHU216HW,2013-02-28 15:57:00,
2013-02-28 10:02:00,31.1,22.7,29.22,NNW,338,12.0,16.3,71,0.00,,,0.00,WUHU216HW,2013-02-28 16:02:00,
2013-02-28 10:07:00,31.1,22.7,29.23,NNW,338,11.8,16.3,71,0.00,,,0.00,WUHU216HW,2013-02-28 16:07:00,
2013-02-28 10:12:00,31.2,22.9,29.22,WNW,293,4.2,11.8,71,0.00,,,0.00,WUHU216HW,2013-02-28 16:12:00,
2013-02-28 10:17:00,31.4,23.1,29.23,NW,315,10.9,11.8,71,0.00,,,0.00,WUHU216HW,2013-02-28 16:17:00,
2013-02-28 10:22:00,31.2,22.6,29.23,North,0,19.4,19.4,70,0.00,,,0.00,WUHU216HW,2013-02-28 16:22:00,
2013-02-28 10:27:00,31.6,23.0,29.23,NNW,338,14.3,19.4,70,0.00,,,0.00,WUHU216HW,2013-02-28 16:27:00,
2013-02-28 10:32:00,31.6,23.0,29.23,North,0,7.8,14.3,70,0.00,,,0.00,WUHU216HW,2013-02-28 16:32:00,
2013-02-28 10:37:00,31.8,23.1,29.23,North,0,11.4,19.9,70,0.00,,,0.00,WUHU216HW,2013-02-28 16:37:00,
2013-02-28 10:42:00,32.0,23.1,29.23,NNW,338,9.6,19.9,69,0.00,,,0.00,WUHU216HW,2013-02-28 16:42:00,
2013-02-28 10:47:00,32.1,23.1,29.24,NW,315,12.5,14.5,69,0.00,,,0.00,WUHU216HW,2013-02-28 16:47:00,
2013-02-28 10:53:00,32.1,23.1,29.24,NNW,338,13.8,13.8,69,0.00,,,0.00,WUHU216HW,2013-02-28 16:53:00,
2013-02-28 10:58:00,32.3,22.9,29.23,North,0,7.3,13.8,68,0.00,,,0.00,WUHU216HW,2013-02-28 16:58:00,
2013-02-28 11:03:00,32.3,22.9,29.23,North,0,16.5,16.5,68,0.00,,,0.00,WUHU216HW,2013-02-28 17:03:00,
2013-02-28 11:08:00,32.3,22.9,29.23,North,0,16.5,16.5,68,0.00,,,0.00,WUHU216HW,2013-02-28 17:08:00,
2013-02-28 11:13:00,33.2,23.7,29.23,North,0,6.9,16.5,68,0.00,,,0.00,WUHU216HW,2013-02-28 17:13:00,
2013-02-28 11:18:00,33.4,23.9,29.24,NNW,338,7.1,16.5,68,0.00,,,0.00,WUHU216HW,2013-02-28 17:18:00,
2013-02-28 11:23:00,33.6,24.0,29.23,NNW,338,12.0,12.0,68,0.00,,,0.00,WUHU216HW,2013-02-28 17:23:00,
2013-02-28 11:28:00,34.1,23.9,29.23,NNW,338,15.4,17.0,66,0.00,,,0.00,WUHU216HW,2013-02-28 17:28:00,
2013-02-28 11:33:00,33.9,23.7,29.24,NNW,338,11.6,17.0,66,0.00,,,0.00,WUHU216HW,2013-02-28 17:33:00,
2013-02-28 11:38:00,34.3,24.0,29.24,NW,315,8.7,15.4,66,0.00,,,0.00,WUHU216HW,2013-02-28 17:38:00,
2013-02-28 11:43:00,34.3,24.0,29.24,North,0,6.4,8.7,66,0.00,,,0.00,WUHU216HW,2013-02-28 17:43:00,
2013-02-28 11:48:00,34.3,24.0,29.24,North,0,6.4,8.7,66,0.00,,,0.00,WUHU216HW,2013-02-28 17:48:00,
2013-02-28 11:53:00,34.3,24.0,29.25,North,0,6.4,6.4,66,0.00,,,0.00,WUHU216HW,2013-02-28 17:53:00,
2013-02-28 11:59:00,33.8,23.5,29.24,NW,315,7.6,7.6,66,0.00,,,0.00,WUHU216HW,2013-02-28 17:59:00,
2013-02-28 12:04:00,33.6,23.3,29.24,NNW,338,7.8,7.8,66,0.00,,,0.00,WUHU216HW,2013-02-28 18:04:00,
2013-02-28 12:09:00,33.4,23.2,29.24,NNW,338,4.4,13.4,66,0.00,,,0.00,WUHU216HW,2013-02-28 18:09:00,
2013-02-28 12:14:00,33.6,23.7,29.24,NNW,338,5.3,13.4,67,0.00,,,0.00,WUHU216HW,2013-02-28 18:14:00,
2013-02-28 12:19:00,33.4,23.5,29.24,NNW,338,8.5,8.9,67,0.00,,,0.00,WUHU216HW,2013-02-28 18:19:00,
2013-02-28 12:24:00,33.4,23.5,29.24,NW,315,5.3,8.9,67,0.00,,,0.00,WUHU216HW,2013-02-28 18:24:00,
2013-02-28 12:29:00,33.4,23.9,29.24,NW,315,3.5,8.5,68,0.00,,,0.00,WUHU216HW,2013-02-28 18:29:00,
2013-02-28 12:34:00,33.6,23.7,29.24,NW,315,6.9,8.5,67,0.00,,,0.00,WUHU216HW,2013-02-28 18:34:00,
2013-02-28 12:39:00,33.6,23.7,29.24,NNW,338,0.0,6.9,67,0.00,,,0.00,WUHU216HW,2013-02-28 18:39:00,
2013-02-28 12:44:00,33.6,24.0,29.24,NW,315,0.0,6.4,68,0.00,,,0.00,WUHU216HW,2013-02-28 18:44:00,
2013-02-28 12:49:00,33.6,24.0,29.24,NW,315,11.6,11.6,68,0.00,,,0.00,WUHU216HW,2013-02-28 18:49:00,
2013-02-28 12:54:00,33.6,23.7,29.24,West,270,0.0,11.6,67,0.00,,,0.00,WUHU216HW,2013-02-28 18:54:00,
2013-02-28 12:59:00,33.6,23.7,29.24,NNW,338,0.0,6.9,67,0.00,,,0.00,WUHU216HW,2013-02-28 18:59:00,
2013-02-28 13:04:00,33.6,23.7,29.24,NW,315,8.7,9.8,67,0.00,,,0.00,WUHU216HW,2013-02-28 19:04:00,
2013-02-28 13:09:00,33.6,23.7,29.24,NNW,338,7.6,9.8,67,0.00,,,0.00,WUHU216HW,2013-02-28 19:09:00,
2013-02-28 13:14:00,33.4,23.5,29.24,NNW,338,5.8,8.7,67,0.00,,,0.00,WUHU216HW,2013-02-28 19:14:00,
2013-02-28 13:19:00,33.0,23.6,29.24,NNW,338,7.3,8.2,68,0.00,,,0.00,WUHU216HW,2013-02-28 19:19:00,
2013-02-28 13:24:00,33.0,23.6,29.24,NNW,338,9.1,10.2,68,0.00,,,0.00,WUHU216HW,2013-02-28 19:24:00,
2013-02-28 13:30:00,33.6,24.0,29.23,NW,315,7.8,10.2,68,0.00,,,0.00,WUHU216HW,2013-02-28 19:30:00,
2013-02-28 13:35:00,33.9,24.0,29.24,NW,315,7.3,7.8,67,0.00,,,0.00,WUHU216HW,2013-02-28 19:35:00,
2013-02-28 13:40:00,33.8,23.9,29.23,NNW,338,8.2,8.2,67,0.00,,,0.00,WUHU216HW,2013-02-28 19:40:00,
2013-02-28 13:45:00,33.8,23.7,29.23,NNW,338,18.3,18.3,67,0.00,,,0.00,WUHU216HW,2013-02-28 19:45:00,
2013-02-28 13:50:00,33.9,24.0,29.23,North,0,16.3,18.3,67,0.00,,,0.00,WUHU216HW,2013-02-28 19:50:00,
2013-02-28 13:55:00,33.6,23.3,29.23,NW,315,6.9,18.3,66,0.00,,,0.00,WUHU216HW,2013-02-28 19:55:00,
2013-02-28 14:00:00,33.4,23.5,29.23,NNW,338,2.0,16.3,67,0.00,,,0.00,WUHU216HW,2013-02-28 20:00:00,
2013-02-28 14:05:00,33.6,24.0,29.23,NNW,338,4.6,14.3,68,0.00,,,0.00,WUHU216HW,2013-02-28 20:05:00,
2013-02-28 14:10:00,33.9,24.0,29.23,NW,315,4.9,6.0,67,0.00,,,0.00,WUHU216HW,2013-02-28 20:10:00,
2013-02-28 14:15:00,33.9,24.0,29.23,NNW,338,13.6,13.6,67,0.00,,,0.00,WUHU216HW,2013-02-28 20:15:00,
2013-02-28 14:20:00,33.8,23.9,29.23,NW,315,7.1,13.6,67,0.00,,,0.00,WUHU216HW,2013-02-28 20:20:00,
2013-02-28 14:25:00,33.9,23.7,29.23,NNW,338,7.1,13.6,66,0.00,,,0.00,WUHU216HW,2013-02-28 20:25:00,
2013-02-28 14:30:00,34.1,24.2,29.23,WNW,293,6.4,7.1,67,0.00,,,0.00,WUHU216HW,2013-02-28 20:30:00,
2013-02-28 14:35:00,34.1,23.9,29.23,NNW,338,10.7,10.7,66,0.00,,,0.00,WUHU216HW,2013-02-28 20:35:00,
2013-02-28 14:40:00,33.9,23.7,29.23,NW,315,8.7,10.7,66,0.00,,,0.00,WUHU216HW,2013-02-28 20:40:00,
2013-02-28 14:45:00,33.9,24.0,29.23,NW,315,4.2,10.7,67,0.00,,,0.00,WUHU216HW,2013-02-28 20:45:00,
2013-02-28 14:50:00,33.9,23.7,29.23,NW,315,0.0,4.2,66,0.00,,,0.00,WUHU216HW,2013-02-28 20:50:00,
2013-02-28 14:56:00,33.8,23.9,29.23,NNW,338,0.0,14.7,67,0.00,,,0.00,WUHU216HW,2013-02-28 20:56:00,
2013-02-28 15:01:00,33.8,23.9,29.23,WNW,293,4.6,14.7,67,0.00,,,0.00,WUHU216HW,2013-02-28 21:01:00,
2013-02-28 15:06:00,33.9,24.0,29.23,WNW,293,0.0,4.6,67,0.00,,,0.00,WUHU216HW,2013-02-28 21:06:00,
2013-02-28 15:11:00,33.8,23.9,29.23,NNW,338,3.1,7.1,67,0.00,,,0.00,WUHU216HW,2013-02-28 21:11:00,
2013-02-28 15:16:00,33.6,24.0,29.23,NNW,338,5.5,7.1,68,0.00,,,0.00,WUHU216HW,2013-02-28 21:16:00,
2013-02-28 15:21:00,33.4,23.9,29.23,NNW,338,9.3,9.3,68,0.00,,,0.00,WUHU216HW,2013-02-28 21:21:00,
2013-02-28 15:26:00,32.9,23.4,29.23,NW,315,5.8,9.3,68,0.00,,,0.00,WUHU216HW,2013-02-28 21:26:00,
2013-02-28 15:31:00,32.7,23.6,29.23,NW,315,7.3,9.3,69,0.00,,,0.00,WUHU216HW,2013-02-28 21:31:00,
2013-02-28 15:36:00,32.5,23.4,29.23,NNW,338,6.9,7.3,69,0.00,,,0.00,WUHU216HW,2013-02-28 21:36:00,
2013-02-28 15:41:00,32.3,23.6,29.23,NNW,338,6.0,18.5,70,0.00,,,0.00,WUHU216HW,2013-02-28 21:41:00,
2013-02-28 15:46:00,32.1,23.5,29.23,NNW,338,7.1,18.5,70,0.00,,,0.00,WUHU216HW,2013-02-28 21:46:00,
2013-02-28 15:51:00,32.1,23.5,29.23,NNW,338,6.0,13.8,70,0.00,,,0.00,WUHU216HW,2013-02-28 21:51:00,
2013-02-28 15:56:00,32.1,23.8,29.23,NW,315,0.0,6.7,71,0.00,,,0.00,WUHU216HW,2013-02-28 21:56:00,
2013-02-28 16:01:00,32.1,23.5,29.23,NNW,338,1.5,9.8,70,0.00,,,0.00,WUHU216HW,2013-02-28 22:01:00,
2013-02-28 16:07:00,32.3,23.6,29.23,NNW,338,10.7,10.7,70,0.00,,,0.00,WUHU216HW,2013-02-28 22:07:00,
2013-02-28 16:12:00,32.1,23.5,29.23,NW,315,3.1,10.7,70,0.00,,,0.00,WUHU216HW,2013-02-28 22:12:00,
2013-02-28 16:17:00,32.1,23.5,29.23,NNE,23,7.1,10.7,70,0.00,,,0.00,WUHU216HW,2013-02-28 22:17:00,
2013-02-28 16:22:00,31.8,23.5,29.23,NW,315,0.0,8.2,71,0.00,,,0.00,WUHU216HW,2013-02-28 22:22:00,
2013-02-28 16:27:00,31.8,23.5,29.23,NW,315,4.4,8.2,71,0.00,,,0.00,WUHU216HW,2013-02-28 22:27:00,
2013-02-28 16:32:00,31.6,23.6,29.23,NNW,338,0.0,9.6,72,0.00,,,0.00,WUHU216HW,2013-02-28 22:32:00,
2013-02-28 16:37:00,31.8,23.8,29.23,NNW,338,0.0,9.6,72,0.00,,,0.00,WUHU216HW,2013-02-28 22:37:00,
2013-02-28 16:42:00,31.8,23.8,29.24,WNW,293,0.0,6.9,72,0.00,,,0.00,WUHU216HW,2013-02-28 22:42:00,
2013-02-28 16:47:00,31.8,23.8,29.24,NW,315,3.3,6.9,72,0.00,,,0.00,WUHU216HW,2013-02-28 22:47:00,
2013-02-28 16:52:00,31.6,23.6,29.23,NW,315,0.0,3.3,72,0.00,,,0.00,WUHU216HW,2013-02-28 22:52:00,
2013-02-28 16:57:00,31.6,23.6,29.24,NW,315,0.0,3.3,72,0.00,,,0.00,WUHU216HW,2013-02-28 22:57:00,
2013-02-28 17:02:00,31.6,23.6,29.23,NW,315,0.0,5.5,72,0.00,,,0.00,WUHU216HW,2013-02-28 23:02:00,
2013-02-28 17:08:00,31.2,23.2,29.24,NW,315,1.3,5.5,72,0.00,,,0.00,WUHU216HW,2013-02-28 23:08:00,
2013-02-28 17:13:00,31.2,23.2,29.23,NW,315,0.0,5.5,72,0.00,,,0.00,WUHU216HW,2013-02-28 23:13:00,
2013-02-28 17:18:00,31.2,23.2,29.24,NW,315,0.0,4.9,72,0.00,,,0.00,WUHU216HW,2013-02-28 23:18:00,
2013-02-28 17:23:00,31.2,23.2,29.24,NW,315,0.6,0.6,72,0.00,,,0.00,WUHU216HW,2013-02-28 23:23:00,
2013-02-28 17:28:00,31.1,23.1,29.24,NW,315,0.0,0.6,72,0.00,,,0.00,WUHU216HW,2013-02-28 23:28:00,
2013-02-28 17:33:00,31.1,23.1,29.24,NW,315,0.0,0.0,72,0.00,,,0.00,WUHU216HW,2013-02-28 23:33:00,
2013-02-28 17:38:00,30.9,23.2,29.24,WNW,293,0.0,0.0,73,0.00,,,0.00,WUHU216HW,2013-02-28 23:38:00,
2013-02-28 17:43:00,30.7,23.0,29.24,WNW,293,0.0,0.0,73,0.00,,,0.00,WUHU216HW,2013-02-28 23:43:00,
2013-02-28 17:48:00,30.3,22.7,29.24,WNW,293,0.0,6.9,73,0.00,,,0.00,WUHU216HW,2013-02-28 23:48:00,
2013-02-28 17:53:00,30.2,22.5,29.24,WNW,293,2.0,6.9,73,0.00,,,0.00,WUHU216HW,2013-02-28 23:53:00,
2013-02-28 17:58:00,30.0,22.6,29.24,WNW,293,0.0,2.0,74,0.00,,,0.00,WUHU216HW,2013-02-28 23:58:00,
2013-02-28 18:04:00,29.8,22.6,29.24,NW,315,0.0,0.0,74,0.00,,,0.00,WUHU216HW,2013-03-01 00:04:00,
2013-02-28 18:09:00,29.6,22.3,29.24,NW,315,0.0,1.5,74,0.00,,,0.00,WUHU216HW,2013-03-01 00:09:00,
2013-02-28 18:14:00,29.4,22.4,29.25,NW,315,0.0,1.5,75,0.00,,,0.00,WUHU216HW,2013-03-01 00:14:00,
2013-02-28 18:19:00,29.4,22.4,29.25,NW,315,0.0,0.0,75,0.00,,,0.00,WUHU216HW,2013-03-01 00:19:00,
2013-02-28 18:24:00,29.3,22.6,29.25,WNW,293,0.0,1.1,76,0.00,,,0.00,WUHU216HW,2013-03-01 00:24:00,
2013-02-28 18:29:00,29.1,22.4,29.25,NW,315,0.0,1.1,76,0.00,,,0.00,WUHU216HW,2013-03-01 00:29:00,
2013-02-28 18:34:00,29.1,22.4,29.25,NW,315,0.0,0.0,76,0.00,,,0.00,WUHU216HW,2013-03-01 00:34:00,
2013-02-28 18:39:00,29.1,22.4,29.25,NW,315,0.0,0.0,76,0.00,,,0.00,WUHU216HW,2013-03-01 00:39:00,
2013-02-28 18:44:00,29.1,22.4,29.25,NW,315,0.0,0.0,76,0.00,,,0.00,WUHU216HW,2013-03-01 00:44:00,
2013-02-28 18:49:00,28.9,22.6,29.25,NW,315,0.0,0.0,77,0.00,,,0.00,WUHU216HW,2013-03-01 00:49:00,
2013-02-28 18:54:00,28.9,22.6,29.25,NW,315,0.0,2.9,77,0.00,,,0.00,WUHU216HW,2013-03-01 00:54:00,
2013-02-28 18:59:00,28.9,22.6,29.25,NW,315,0.0,2.9,77,0.00,,,0.00,WUHU216HW,2013-03-01 00:59:00,
2013-02-28 19:04:00,28.9,22.6,29.25,NW,315,0.0,0.0,77,0.00,,,0.00,WUHU216HW,2013-03-01 01:04:00,
2013-02-28 19:09:00,28.9,22.6,29.25,NW,315,0.0,0.0,77,0.00,,,0.00,WUHU216HW,2013-03-01 01:09:00,
2013-02-28 19:14:00,28.7,22.4,29.25,NW,315,0.0,0.0,77,0.00,,,0.00,WUHU216HW,2013-03-01 01:14:00,
2013-02-28 19:19:00,28.7,22.4,29.25,NW,315,0.0,1.7,77,0.00,,,0.00,WUHU216HW,2013-03-01 01:19:00,
2013-02-28 19:25:00,28.7,22.4,29.25,NW,315,0.0,1.7,77,0.00,,,0.00,WUHU216HW,2013-03-01 01:25:00,
2013-02-28 19:30:00,28.7,22.4,29.25,NW,315,0.0,0.0,77,0.00,,,0.00,WUHU216HW,2013-03-01 01:30:00,
2013-02-28 19:35:00,28.7,22.4,29.25,NW,315,0.0,0.0,77,0.00,,,0.00,WUHU216HW,2013-03-01 01:35:00,
2013-02-28 19:40:00,28.7,22.4,29.25,WNW,293,0.0,0.0,77,0.00,,,0.00,WUHU216HW,2013-03-01 01:40:00,
2013-02-28 19:45:00,28.7,22.4,29.25,WNW,293,0.0,0.0,77,0.00,,,0.00,WUHU216HW,2013-03-01 01:45:00,
2013-02-28 19:50:00,28.7,22.4,29.25,WNW,293,0.0,0.0,77,0.00,,,0.00,WUHU216HW,2013-03-01 01:50:00,
2013-02-28 19:55:00,28.5,22.2,29.25,WNW,293,0.0,0.0,77,0.00,,,0.00,WUHU216HW,2013-03-01 01:55:00,
2013-02-28 20:00:00,28.5,22.2,29.25,WNW,293,0.0,0.0,77,0.00,,,0.00,WUHU216HW,2013-03-01 02:00:00,
2013-02-28 20:05:00,28.5,22.2,29.25,WNW,293,0.0,0.0,77,0.00,,,0.00,WUHU216HW,2013-03-01 02:05:00,
2013-02-28 20:10:00,28.5,22.2,29.25,WNW,293,0.0,0.0,77,0.00,,,0.00,WUHU216HW,2013-03-01 02:10:00,
2013-02-28 20:15:00,28.5,22.5,29.25,WNW,293,0.0,0.0,78,0.00,,,0.00,WUHU216HW,2013-03-01 02:15:00,
2013-02-28 20:20:00,28.5,22.5,29.25,WNW,293,0.0,0.0,78,0.00,,,0.00,WUHU216HW,2013-03-01 02:20:00,
2013-02-28 20:25:00,28.5,22.5,29.25,WNW,293,1.7,1.7,78,0.00,,,0.00,WUHU216HW,2013-03-01 02:25:00,
2013-02-28 20:30:00,28.5,22.5,29.25,WNW,293,0.0,4.9,78,0.00,,,0.00,WUHU216HW,2013-03-01 02:30:00,
2013-02-28 20:35:00,28.5,22.2,29.25,WNW,293,0.0,4.9,77,0.00,,,0.00,WUHU216HW,2013-03-01 02:35:00,
2013-02-28 20:41:00,28.5,22.2,29.25,WNW,293,0.0,0.0,77,0.00,,,0.00,WUHU216HW,2013-03-01 02:41:00,
2013-02-28 20:46:00,28.5,22.2,29.25,WNW,293,0.0,0.0,77,0.00,,,0.00,WUHU216HW,2013-03-01 02:46:00,
2013-02-28 20:51:00,28.7,22.4,29.25,WNW,293,0.0,0.0,77,0.00,,,0.00,WUHU216HW,2013-03-01 02:51:00,
2013-02-28 20:56:00,28.7,22.4,29.25,WNW,293,0.0,0.0,77,0.00,,,0.00,WUHU216HW,2013-03-01 02:56:00,
2013-02-28 21:01:00,28.7,22.4,29.25,WNW,293,2.2,2.2,77,0.00,,,0.00,WUHU216HW,2013-03-01 03:01:00,
2013-02-28 21:06:00,28.7,22.4,29.25,WNW,293,0.0,2.2,77,0.00,,,0.00,WUHU216HW,2013-03-01 03:06:00,
2013-02-28 21:11:00,28.7,22.4,29.26,NW,315,5.3,5.3,77,0.00,,,0.00,WUHU216HW,2013-03-01 03:11:00,
2013-02-28 21:16:00,28.9,22.6,29.26,NW,315,0.0,5.3,77,0.00,,,0.00,WUHU216HW,2013-03-01 03:16:00,
2013-02-28 21:22:00,28.9,22.6,29.26,NW,315,0.0,5.3,77,0.00,,,0.00,WUHU216HW,2013-03-01 03:22:00,
2013-02-28 21:27:00,28.9,22.6,29.26,NW,315,0.0,2.6,77,0.00,,,0.00,WUHU216HW,2013-03-01 03:27:00,
2013-02-28 21:32:00,28.9,22.6,29.26,NW,315,0.0,0.0,77,0.00,,,0.00,WUHU216HW,2013-03-01 03:32:00,
2013-02-28 21:37:00,28.9,22.6,29.26,NW,315,0.0,0.0,77,0.00,,,0.00,WUHU216HW,2013-03-01 03:37:00,
2013-02-28 21:42:00,28.9,22.6,29.26,NW,315,1.5,1.5,77,0.00,,,0.00,WUHU216HW,2013-03-01 03:42:00,
2013-02-28 21:47:00,28.7,22.4,29.26,NW,315,0.0,1.5,77,0.00,,,0.00,WUHU216HW,2013-03-01 03:47:00,
2013-02-28 21:52:00,28.7,22.4,29.26,NW,315,2.2,2.2,77,0.00,,,0.00,WUHU216HW,2013-03-01 03:52:00,
2013-02-28 21:57:00,28.7,22.4,29.26,NW,315,1.3,2.2,77,0.00,,,0.00,WUHU216HW,2013-03-01 03:57:00,
2013-02-28 22:02:00,28.7,22.4,29.26,NW,315,0.0,1.3,77,0.00,,,0.00,WUHU216HW,2013-03-01 04:02:00,
2013-02-28 22:07:00,28.7,22.4,29.26,NW,315,0.0,0.0,77,0.00,,,0.00,WUHU216HW,2013-03-01 04:07:00,
2013-02-28 22:12:00,28.7,22.4,29.26,NW,315,0.0,0.0,77,0.00,,,0.00,WUHU216HW,2013-03-01 04:12:00,
2013-02-28 22:17:00,28.5,22.2,29.25,NW,315,0.0,0.0,77,0.00,,,0.00,WUHU216HW,2013-03-01 04:17:00,
2013-02-28 22:22:00,28.5,22.2,29.25,NW,315,0.0,0.0,77,0.00,,,0.00,WUHU216HW,2013-03-01 04:22:00,
2013-02-28 22:27:00,28.7,22.4,29.25,NW,315,0.0,0.0,77,0.00,,,0.00,WUHU216HW,2013-03-01 04:27:00,
2013-02-28 22:32:00,28.5,22.2,29.25,NW,315,3.5,3.5,77,0.00,,,0.00,WUHU216HW,2013-03-01 04:32:00,
2013-02-28 22:38:00,28.5,22.2,29.25,NW,315,0.0,3.5,77,0.00,,,0.00,WUHU216HW,2013-03-01 04:38:00,
2013-02-28 22:43:00,28.5,22.2,29.25,NW,315,0.0,3.5,77,0.00,,,0.00,WUHU216HW,2013-03-01 04:43:00,
2013-02-28 22:48:00,28.7,22.4,29.25,NW,315,0.0,0.0,77,0.00,,,0.00,WUHU216HW,2013-03-01 04:48:00,
2013-02-28 22:53:00,28.7,22.4,29.25,NW,315,0.0,0.0,77,0.00,,,0.00,WUHU216HW,2013-03-01 04:53:00,
2013-02-28 22:58:00,28.7,22.4,29.25,NW,315,0.0,0.0,77,0.00,,,0.00,WUHU216HW,2013-03-01 04:58:00,
2013-02-28 23:00:00,28.7,22.1,29.25,NW,315,0.0,0.0,76,0.00,,,0.00,WUHU216HW,2013-03-01 05:00:00,
2013-02-28 23:02:00,28.7,22.1,29.25,NW,315,0.0,0.0,76,0.00,,,0.00,WUHU216HW,2013-03-01 05:02:00,
2013-02-28 23:06:00,28.7,22.1,29.25,NW,315,0.0,0.0,76,0.00,,,0.00,WUHU216HW,2013-03-01 05:06:00,
2013-02-28 23:11:00,28.7,22.1,29.25,NW,315,0.0,0.0,76,0.00,,,0.00,WUHU216HW,2013-03-01 05:11:00,
2013-02-28 23:16:00,28.7,22.1,29.24,NW,315,0.0,0.0,76,0.00,,,0.00,WUHU216HW,2013-03-01 05:16:00,
2013-02-28 23:21:00,28.7,22.1,29.24,NW,315,0.0,0.0,76,0.00,,,0.00,WUHU216HW,2013-03-01 05:21:00,
2013-02-28 23:26:00,28.7,22.1,29.24,NW,315,6.9,6.9,76,0.00,,,0.00,WUHU216HW,2013-03-01 05:26:00,
2013-02-28 23:30:00,28.7,22.4,29.24,NW,315,0.0,6.9,77,0.00,,,0.00,WUHU216HW,2013-03-01 05:30:00,
2013-02-28 23:31:00,28.7,22.4,29.24,NW,315,0.0,6.9,77,0.00,,,0.00,WUHU216HW,2013-03-01 05:31:00,
2013-02-28 23:36:00,28.9,22.6,29.24,NW,315,6.7,6.9,77,0.00,,,0.00,WUHU216HW,2013-03-01 05:36:00,
2013-02-28 23:41:00,28.9,22.6,29.24,NNW,338,5.8,6.7,77,0.00,,,0.00,WUHU216HW,2013-03-01 05:41:00,
2013-02-28 23:46:00,28.9,22.6,29.24,NNW,338,4.9,7.3,77,0.00,,,0.00,WUHU216HW,2013-03-01 05:46:00,
2013-02-28 23:51:00,28.9,22.6,29.24,NNW,338,0.0,7.3,77,0.00,,,0.00,WUHU216HW,2013-03-01 05:51:00,
2013-02-28 23:56:00,28.9,22.2,29.24,NNW,338,3.8,5.5,76,0.00,,,0.00,WUHU216HW,2013-03-01 05:56:00,